Time;durP1;ratioP1;P1;durP2;ratioP2;P2;SDS_P1;SDS_P2;PMS_P1;PMS_P2;Temp;Humidity;BMP_temperature;BMP_pressure;BME280_temperature;BME280_humidity;BME280_pressure;Samples;Min_cycle;Max_cycle;Signal;HPM_P1;HPM_P2
2021/08/16 00:00:52;;;;;;;16.95;9.25;;;;;;;18.96;100.00;95206.25;5087584;28;20101;-81
2021/08/16 00:03:18;;;;;;;23.08;9.70;;;;;;;18.82;100.00;95212.66;5090482;28;20046;-81
2021/08/16 00:05:43;;;;;;;16.77;9.80;;;;;;;18.67;100.00;95207.94;5094096;28;20040;-81
2021/08/16 00:08:09;;;;;;;21.50;9.70;;;;;;;18.81;100.00;95205.00;5092410;28;20171;-81
2021/08/16 00:10:36;;;;;;;19.30;9.52;;;;;;;18.77;100.00;95196.84;5092295;28;20040;-81
2021/08/16 00:13:02;;;;;;;17.30;10.40;;;;;;;18.74;100.00;95194.84;5092548;28;20048;-82
2021/08/16 00:15:28;;;;;;;20.20;10.25;;;;;;;18.56;100.00;95182.81;5093036;28;20054;-82
2021/08/16 00:17:54;;;;;;;16.50;9.85;;;;;;;18.56;100.00;95182.81;5088043;28;20045;-80
2021/08/16 00:20:19;;;;;;;23.27;10.77;;;;;;;18.51;100.00;95179.22;5091615;28;20048;-82
2021/08/16 00:22:45;;;;;;;28.58;10.68;;;;;;;18.58;100.00;95172.63;5081041;28;20044;-81
2021/08/16 00:25:11;;;;;;;23.23;10.95;;;;;;;18.58;100.00;95183.28;5074665;28;20043;-81
2021/08/16 00:27:36;;;;;;;18.90;10.82;;;;;;;18.48;100.00;95187.88;5080991;28;20047;-82
2021/08/16 00:30:06;;;;;;;20.23;10.73;;;;;;;18.44;100.00;95180.88;5076167;28;20044;-82
2021/08/16 00:32:31;;;;;;;22.52;10.77;;;;;;;18.49;100.00;95184.13;5088842;28;20069;-83
2021/08/16 00:34:57;;;;;;;16.52;9.73;;;;;;;18.52;100.00;95183.47;5086867;28;20037;-82
2021/08/16 00:37:22;;;;;;;18.02;9.20;;;;;;;18.44;100.00;95176.31;5073987;28;20091;-81
2021/08/16 00:39:48;;;;;;;17.80;10.13;;;;;;;18.36;100.00;95182.53;5088419;28;20044;-81
2021/08/16 00:42:13;;;;;;;17.55;8.95;;;;;;;18.39;100.00;95184.53;5083313;28;20051;-82
2021/08/16 00:44:39;;;;;;;17.50;9.25;;;;;;;18.38;99.73;95188.28;5086779;28;20133;-80
2021/08/16 00:47:05;;;;;;;15.88;8.35;;;;;;;18.33;99.22;95185.81;5088880;28;20621;-81
2021/08/16 00:49:31;;;;;;;14.13;8.02;;;;;;;18.28;98.52;95188.69;5093400;28;20051;-81
2021/08/16 00:51:57;;;;;;;15.63;8.13;;;;;;;18.18;98.27;95179.22;5087333;28;20044;-80
2021/08/16 00:54:22;;;;;;;18.85;7.63;;;;;;;18.06;98.29;95177.28;5092764;28;20048;-81
2021/08/16 00:56:48;;;;;;;15.95;8.52;;;;;;;18.10;96.57;95178.19;5089516;28;20051;-81
2021/08/16 00:59:17;;;;;;;16.15;8.02;;;;;;;18.02;97.37;95186.25;5074195;28;20051;-81
2021/08/16 01:01:43;;;;;;;18.17;7.25;;;;;;;18.03;95.98;95188.59;5076034;28;20040;-82
2021/08/16 01:04:09;;;;;;;16.33;7.35;;;;;;;18.00;95.78;95183.88;5094666;28;20047;-81
2021/08/16 01:06:34;;;;;;;18.63;7.80;;;;;;;17.93;97.01;95188.94;5093504;28;20061;-80
2021/08/16 01:09:00;;;;;;;14.70;7.38;;;;;;;17.93;96.67;95202.25;5082775;28;20068;-81
2021/08/16 01:11:26;;;;;;;17.80;7.95;;;;;;;17.96;97.85;95222.94;5083618;28;20057;-82
2021/08/16 01:13:52;;;;;;;26.05;8.73;;;;;;;17.82;100.00;95221.25;5087129;28;20064;-80
2021/08/16 01:16:19;;;;;;;21.95;9.32;;;;;;;17.79;100.00;95211.25;5087736;28;20028;-79
2021/08/16 01:18:45;;;;;;;23.60;9.60;;;;;;;17.71;100.00;95198.75;5081436;28;20047;-79
2021/08/16 01:21:13;;;;;;;17.83;9.80;;;;;;;17.83;100.00;95206.06;5076486;28;20497;-79
2021/08/16 01:23:40;;;;;;;21.40;9.50;;;;;;;17.93;100.00;95210.25;5091160;28;20039;-80
2021/08/16 01:26:05;;;;;;;19.10;9.50;;;;;;;17.90;100.00;95224.16;5093466;28;20048;-79
2021/08/16 01:28:31;;;;;;;22.60;9.82;;;;;;;17.84;100.00;95207.59;5088364;28;20490;-78
2021/08/16 01:30:59;;;;;;;15.55;9.02;;;;;;;17.95;100.00;95219.47;5085751;28;20047;-79
2021/08/16 01:33:25;;;;;;;15.38;8.88;;;;;;;17.98;100.00;95213.50;5088228;28;20472;-79
2021/08/16 01:35:51;;;;;;;24.20;9.82;;;;;;;17.86;100.00;95207.28;5089870;28;20043;-78
2021/08/16 01:38:37;;;;;;;18.38;9.20;;;;;;;17.93;100.00;95188.94;5088229;28;20040;-79
2021/08/16 01:41:04;;;;;;;16.83;8.77;;;;;;;17.91;100.00;95191.16;5086637;28;20040;-79
2021/08/16 01:43:30;;;;;;;13.70;8.25;;;;;;;17.90;100.00;95211.69;5092479;28;20066;-81
2021/08/16 01:45:56;;;;;;;16.52;9.82;;;;;;;17.78;100.00;95222.97;5088797;28;20064;-78
2021/08/16 01:48:21;;;;;;;19.40;10.27;;;;;;;17.79;100.00;95226.44;5089636;28;20520;-78
2021/08/16 01:50:47;;;;;;;20.10;9.20;;;;;;;17.89;100.00;95236.72;5092605;28;20481;-79
2021/08/16 01:53:13;;;;;;;17.95;9.13;;;;;;;17.75;100.00;95236.94;5087751;28;20729;-80
2021/08/16 01:55:39;;;;;;;19.92;10.40;;;;;;;17.65;100.00;95245.28;5086087;28;20107;-79
2021/08/16 01:58:05;;;;;;;19.40;9.45;;;;;;;17.82;100.00;95231.88;5085613;28;20055;-78
2021/08/16 02:00:31;;;;;;;22.13;9.60;;;;;;;17.75;100.00;95220.97;5090107;28;20043;-79
2021/08/16 02:02:57;;;;;;;20.05;10.30;;;;;;;17.66;100.00;95214.94;5075676;28;20040;-79
2021/08/16 02:05:23;;;;;;;20.63;10.15;;;;;;;17.64;100.00;95214.47;5070776;28;20040;-79
2021/08/16 02:07:49;;;;;;;20.50;10.40;;;;;;;17.54;100.00;95204.19;5080982;28;20048;-80
2021/08/16 02:10:14;;;;;;;15.32;10.48;;;;;;;17.45;100.00;95191.69;5094935;28;20050;-79
2021/08/16 02:12:40;;;;;;;23.80;11.23;;;;;;;17.33;100.00;95186.31;5087848;28;20456;-79
2021/08/16 02:15:07;;;;;;;15.73;10.57;;;;;;;17.30;100.00;95193.03;5091980;28;20036;-80
2021/08/16 02:17:33;;;;;;;21.90;10.43;;;;;;;17.49;100.00;95195.28;5088419;28;20066;-79
2021/08/16 02:19:59;;;;;;;21.25;9.90;;;;;;;17.60;100.00;95186.97;5079827;28;20082;-79
2021/08/16 02:22:24;;;;;;;16.88;9.63;;;;;;;17.44;100.00;95179.53;5082886;28;20048;-79
2021/08/16 02:24:50;;;;;;;18.30;9.00;;;;;;;17.35;100.00;95186.75;5091748;28;20040;-80
2021/08/16 02:27:17;;;;;;;17.80;9.35;;;;;;;17.46;100.00;95181.84;5091745;28;20052;-80
2021/08/16 02:29:42;;;;;;;19.23;9.48;;;;;;;17.45;100.00;95170.41;5092627;28;20044;-80
2021/08/16 02:32:08;;;;;;;18.17;8.77;;;;;;;17.40;100.00;95173.28;5075743;28;20044;-78
2021/08/16 02:34:33;;;;;;;16.25;9.02;;;;;;;17.43;100.00;95156.66;5087561;28;20115;-81
2021/08/16 02:36:59;;;;;;;22.65;9.68;;;;;;;17.37;100.00;95147.31;5095505;28;20712;-81
2021/08/16 02:39:25;;;;;;;18.02;9.90;;;;;;;17.29;100.00;95150.81;5093356;28;20044;-79
2021/08/16 02:41:50;;;;;;;18.42;8.95;;;;;;;17.29;100.00;95145.50;5085264;28;20040;-79
2021/08/16 02:44:16;;;;;;;15.57;8.65;;;;;;;17.23;100.00;95152.88;5076363;28;20063;-81
2021/08/16 02:46:41;;;;;;;18.42;9.77;;;;;;;17.18;100.00;95160.25;5085774;28;20046;-80
2021/08/16 02:49:07;;;;;;;17.20;9.25;;;;;;;17.12;100.00;95160.44;5089706;28;20043;-79
2021/08/16 02:51:33;;;;;;;20.67;8.85;;;;;;;17.04;100.00;95166.56;5074411;28;20113;-80
2021/08/16 02:53:58;;;;;;;15.13;8.80;;;;;;;17.10;100.00;95175.91;5087813;28;20043;-80
2021/08/16 02:56:24;;;;;;;21.63;9.43;;;;;;;16.99;100.00;95163.28;5091284;28;20051;-81
2021/08/16 02:58:49;;;;;;;15.55;8.88;;;;;;;17.06;100.00;95164.34;5085494;28;20048;-80
2021/08/16 03:01:15;;;;;;;14.07;8.45;;;;;;;17.02;100.00;95168.75;5077459;28;20040;-80
2021/08/16 03:03:41;;;;;;;16.80;8.68;;;;;;;17.13;100.00;95169.94;5076674;28;20121;-80
2021/08/16 03:06:06;;;;;;;18.60;9.15;;;;;;;17.07;100.00;95171.22;5089263;28;20398;-79
2021/08/16 03:08:34;;;;;;;23.95;8.32;;;;;;;17.12;100.00;95179.03;5095552;28;20873;-79
2021/08/16 03:11:00;;;;;;;13.45;8.10;;;;;;;17.17;100.00;95179.94;5094480;28;20047;-80
2021/08/16 03:13:26;;;;;;;17.75;7.88;;;;;;;17.12;100.00;95186.22;5086050;28;20036;-80
2021/08/16 03:15:51;;;;;;;13.52;8.52;;;;;;;17.12;100.00;95173.72;5094032;28;20040;-80
2021/08/16 03:18:17;;;;;;;15.68;8.75;;;;;;;16.99;100.00;95174.69;5095748;28;20526;-80
2021/08/16 03:20:42;;;;;;;16.58;9.27;;;;;;;16.88;100.00;95168.16;5089404;28;20043;-82
2021/08/16 03:23:08;;;;;;;11.98;7.68;;;;;;;17.07;100.00;95159.84;5075498;28;20133;-82
2021/08/16 03:25:33;;;;;;;14.93;8.05;;;;;;;17.11;100.00;95182.00;5084478;28;20409;-81
2021/08/16 03:27:59;;;;;;;14.98;8.18;;;;;;;16.96;100.00;95191.28;5084759;28;20044;-80
2021/08/16 03:30:24;;;;;;;13.00;8.73;;;;;;;16.99;100.00;95190.66;5093779;28;20051;-80
2021/08/16 03:32:50;;;;;;;16.45;8.77;;;;;;;16.86;100.00;95178.31;5091018;28;20040;-81
2021/08/16 03:35:16;;;;;;;17.65;9.60;;;;;;;16.81;100.00;95181.94;5089254;28;20101;-81
2021/08/16 03:37:42;;;;;;;15.15;8.80;;;;;;;16.98;100.00;95178.44;5094792;28;20044;-80
2021/08/16 03:40:09;;;;;;;14.45;8.85;;;;;;;17.03;100.00;95175.63;5093763;28;20044;-81
2021/08/16 03:42:35;;;;;;;19.05;8.07;;;;;;;17.04;100.00;95171.88;5082794;28;20382;-80
2021/08/16 03:45:03;;;;;;;18.83;7.90;;;;;;;17.01;100.00;95177.84;5075527;28;20036;-80
2021/08/16 03:47:29;;;;;;;17.48;8.27;;;;;;;17.06;100.00;95185.63;5075505;28;20041;-80
2021/08/16 03:49:54;;;;;;;16.52;7.95;;;;;;;16.99;100.00;95173.94;5082294;28;20128;-80
2021/08/16 03:52:20;;;;;;;14.65;8.02;;;;;;;16.93;100.00;95173.31;5078575;28;20112;-81
2021/08/16 03:54:46;;;;;;;19.58;8.80;;;;;;;16.94;100.00;95177.53;5092228;28;20551;-80
2021/08/16 03:57:11;;;;;;;20.83;8.38;;;;;;;16.90;100.00;95165.97;5083314;28;20044;-80
2021/08/16 03:59:37;;;;;;;16.55;7.93;;;;;;;17.00;100.00;95164.88;5078103;28;20045;-81
2021/08/16 04:02:03;;;;;;;15.70;7.90;;;;;;;17.01;100.00;95161.09;5087952;28;20051;-81
2021/08/16 04:04:28;;;;;;;17.67;8.27;;;;;;;16.96;100.00;95154.06;5089488;28;20051;-80
2021/08/16 04:06:54;;;;;;;12.30;7.28;;;;;;;17.03;100.00;95151.69;5095196;28;20101;-80
2021/08/16 04:09:20;;;;;;;15.27;7.93;;;;;;;16.97;100.00;95155.63;5092269;28;20040;-80
2021/08/16 04:11:45;;;;;;;14.00;7.90;;;;;;;16.95;100.00;95158.63;5086646;28;20115;-81
2021/08/16 04:14:11;;;;;;;16.55;7.95;;;;;;;16.96;100.00;95143.44;5090774;28;20111;-81
2021/08/16 04:16:37;;;;;;;15.13;8.32;;;;;;;16.99;100.00;95137.47;5092778;28;20050;-81
2021/08/16 04:19:04;;;;;;;17.35;8.80;;;;;;;17.10;100.00;95143.25;5092781;28;20048;-81
2021/08/16 04:21:30;;;;;;;14.80;7.90;;;;;;;17.18;100.00;95112.38;5086187;28;20048;-80
2021/08/16 04:23:55;;;;;;;15.55;8.57;;;;;;;17.17;100.00;95110.81;5086566;28;20524;-80
2021/08/16 04:26:21;;;;;;;13.95;7.40;;;;;;;17.31;100.00;95111.34;5079931;28;20036;-80
2021/08/16 04:28:46;;;;;;;21.45;7.82;;;;;;;17.10;100.00;95120.09;5085499;28;20047;-80
2021/08/16 04:31:12;;;;;;;18.55;8.18;;;;;;;17.16;100.00;95130.53;5091068;28;20059;-81
2021/08/16 04:33:37;;;;;;;13.68;7.40;;;;;;;17.11;100.00;95140.25;5089572;28;20085;-80
2021/08/16 04:36:03;;;;;;;12.95;6.85;;;;;;;17.23;99.71;95136.13;5094234;28;20052;-80
2021/08/16 04:38:28;;;;;;;11.93;6.50;;;;;;;17.20;100.00;95136.78;5089287;28;20102;-80
2021/08/16 04:40:54;;;;;;;18.48;7.28;;;;;;;17.14;100.00;95139.63;5092773;28;20090;-80
2021/08/16 04:43:21;;;;;;;12.30;7.90;;;;;;;17.14;100.00;95144.94;5084364;28;20040;-82
2021/08/16 04:45:47;;;;;;;14.13;7.10;;;;;;;17.17;100.00;95153.34;5083728;28;20071;-81
2021/08/16 04:48:12;;;;;;;16.02;7.00;;;;;;;17.10;100.00;95165.28;5081324;28;20521;-81
2021/08/16 04:50:38;;;;;;;15.65;7.28;;;;;;;17.10;100.00;95154.63;5081937;28;20036;-81
2021/08/16 04:53:04;;;;;;;10.82;7.00;;;;;;;17.07;100.00;95155.28;5087531;28;20497;-81
2021/08/16 04:55:30;;;;;;;13.75;7.90;;;;;;;17.12;100.00;95168.41;5091471;28;20048;-81
2021/08/16 04:57:55;;;;;;;12.25;7.70;;;;;;;17.26;99.60;95178.03;5087683;28;20062;-81
2021/08/16 05:00:25;;;;;;;11.80;7.13;;;;;;;17.16;100.00;95178.41;5087223;28;20064;-81
2021/08/16 05:02:52;;;;;;;10.90;6.60;;;;;;;17.17;100.00;95193.25;5087412;28;20043;-80
2021/08/16 05:05:19;;;;;;;13.05;6.93;;;;;;;17.20;100.00;95190.72;5079231;28;20066;-80
2021/08/16 05:07:50;;;;;;;17.48;7.47;;;;;;;17.27;99.54;95184.94;5091258;28;20040;-79
2021/08/16 05:10:17;;;;;;;13.75;6.85;;;;;;;17.24;99.47;95196.19;5084793;28;20401;-81
2021/08/16 05:12:43;;;;;;;11.35;6.70;;;;;;;17.21;100.00;95196.81;5089537;28;20098;-81
2021/08/16 05:15:08;;;;;;;13.90;6.68;;;;;;;17.30;98.54;95206.34;5083249;28;20052;-80
2021/08/16 05:17:35;;;;;;;15.38;7.53;;;;;;;17.25;99.88;95229.66;5085466;28;20040;-81
2021/08/16 05:20:04;;;;;;;15.90;7.18;;;;;;;17.32;99.40;95240.59;5073265;28;20040;-80
2021/08/16 05:22:29;;;;;;;16.92;7.40;;;;;;;17.38;99.23;95255.25;5076023;28;20040;-80
2021/08/16 05:24:55;;;;;;;13.88;7.30;;;;;;;17.36;99.35;95262.78;5094311;28;20516;-79
2021/08/16 05:27:20;;;;;;;14.27;7.03;;;;;;;17.59;97.47;95270.53;5084657;28;20710;-79
2021/08/16 05:29:46;;;;;;;11.98;6.72;;;;;;;17.60;98.21;95261.47;5085567;28;20054;-79
2021/08/16 05:32:12;;;;;;;12.15;6.45;;;;;;;17.72;97.62;95253.56;5089815;28;20045;-79
2021/08/16 05:34:38;;;;;;;12.82;7.38;;;;;;;17.75;97.82;95247.59;5083956;28;20044;-79
2021/08/16 05:37:04;;;;;;;15.77;7.10;;;;;;;17.74;96.74;95240.72;5080705;28;20048;-79
2021/08/16 05:39:30;;;;;;;8.55;5.90;;;;;;;17.82;94.98;95237.22;5081529;28;20059;-79
2021/08/16 05:41:56;;;;;;;12.30;6.28;;;;;;;17.83;95.25;95238.78;5087190;28;20548;-79
2021/08/16 05:44:21;;;;;;;10.15;5.72;;;;;;;17.72;95.59;95269.53;5088949;28;20048;-78
2021/08/16 05:46:47;;;;;;;14.35;6.40;;;;;;;17.56;96.28;95295.13;5084021;28;20504;-80
2021/08/16 05:49:12;;;;;;;10.25;5.82;;;;;;;17.54;95.72;95281.34;5076767;28;20404;-77
2021/08/16 05:51:38;;;;;;;10.48;5.90;;;;;;;17.56;96.57;95289.78;5078381;28;20040;-77
2021/08/16 05:54:03;;;;;;;10.48;5.50;;;;;;;17.81;92.66;95288.91;5088385;28;20071;-79
2021/08/16 05:56:29;;;;;;;11.85;6.07;;;;;;;17.66;94.12;95303.50;5072449;28;20098;-79
2021/08/16 05:58:55;;;;;;;11.85;5.35;;;;;;;17.65;93.16;95307.25;5080278;28;20468;-78
2021/08/16 06:01:21;;;;;;;8.27;5.85;;;;;;;17.63;92.32;95306.03;5083200;28;20032;-79
2021/08/16 06:03:46;;;;;;;10.77;5.00;;;;;;;17.67;91.38;95309.63;5083825;28;20032;-78
2021/08/16 06:06:12;;;;;;;10.20;5.03;;;;;;;17.52;91.92;95313.59;5084921;28;20043;-79
2021/08/16 06:08:37;;;;;;;9.07;4.80;;;;;;;17.41;91.67;95318.47;5080843;28;20546;-79
2021/08/16 06:11:03;;;;;;;10.63;4.80;;;;;;;17.30;92.76;95311.94;5087241;28;20075;-78
2021/08/16 06:13:30;;;;;;;10.07;4.70;;;;;;;17.14;94.15;95301.78;5081982;28;20044;-81
2021/08/16 06:15:55;;;;;;;12.65;5.38;;;;;;;16.93;97.51;95292.91;5079642;28;20052;-80
2021/08/16 06:18:21;;;;;;;10.50;5.60;;;;;;;16.95;97.99;95285.41;5086843;28;20051;-79
2021/08/16 06:20:46;;;;;;;10.50;5.70;;;;;;;17.00;99.39;95274.63;5087601;28;20036;-80
2021/08/16 06:23:12;;;;;;;12.00;5.93;;;;;;;16.94;100.00;95267.91;5087119;28;20550;-79
2021/08/16 06:25:37;;;;;;;12.32;6.03;;;;;;;16.91;100.00;95276.50;5084038;28;20079;-80
2021/08/16 06:28:03;;;;;;;13.77;6.80;;;;;;;17.01;100.00;95268.22;5079648;28;20087;-82
2021/08/16 06:30:29;;;;;;;11.73;5.88;;;;;;;17.01;100.00;95278.84;5086089;28;20083;-80
2021/08/16 06:32:54;;;;;;;11.95;6.13;;;;;;;17.04;100.00;95278.22;5074400;28;20119;-79
2021/08/16 06:35:20;;;;;;;13.80;5.97;;;;;;;17.10;100.00;95270.84;5086747;28;20173;-79
2021/08/16 06:37:46;;;;;;;12.23;6.63;;;;;;;17.09;100.00;95278.03;5088978;28;20032;-79
2021/08/16 06:40:13;;;;;;;13.05;6.65;;;;;;;17.11;100.00;95251.91;5081615;28;20052;-79
2021/08/16 06:42:39;;;;;;;11.90;6.65;;;;;;;17.32;100.00;95251.22;5076153;28;20782;-79
2021/08/16 06:45:06;;;;;;;11.50;6.70;;;;;;;17.31;100.00;95258.44;5080530;28;20040;-80
2021/08/16 06:47:32;;;;;;;12.85;6.65;;;;;;;17.46;100.00;95257.09;5082685;28;20040;-80
2021/08/16 06:49:57;;;;;;;15.63;6.63;;;;;;;17.43;100.00;95252.44;5082114;28;20097;-79
2021/08/16 06:52:23;;;;;;;11.80;6.65;;;;;;;17.64;100.00;95251.72;5079379;28;20040;-85
2021/08/16 06:54:48;;;;;;;10.43;6.13;;;;;;;17.68;100.00;95247.31;5082862;28;20052;-79
2021/08/16 06:57:14;;;;;;;11.13;6.10;;;;;;;17.63;100.00;95236.88;5085145;28;20101;-78
2021/08/16 06:59:40;;;;;;;11.18;6.00;;;;;;;17.72;99.54;95242.91;5082824;28;20040;-80
2021/08/16 07:02:05;;;;;;;11.73;6.30;;;;;;;17.93;100.00;95242.19;5082337;28;20032;-79
2021/08/16 07:04:34;;;;;;;10.65;6.22;;;;;;;17.82;100.00;95225.78;5077884;28;20111;-79
2021/08/16 07:06:59;;;;;;;11.80;5.70;;;;;;;18.03;99.15;95225.84;5085246;28;20044;-80
2021/08/16 07:09:25;;;;;;;9.60;6.07;;;;;;;18.20;99.30;95229.50;5089944;28;20382;-80
2021/08/16 07:11:51;;;;;;;11.85;6.28;;;;;;;18.29;98.96;95238.97;5089391;28;20066;-81
2021/08/16 07:14:16;;;;;;;9.65;5.68;;;;;;;18.46;98.98;95226.63;5088670;28;20507;-79
2021/08/16 07:16:42;;;;;;;9.60;5.75;;;;;;;18.46;97.36;95216.75;5085627;28;20036;-81
2021/08/16 07:19:07;;;;;;;9.00;5.32;;;;;;;18.65;97.18;95223.50;5087567;28;20047;-80
2021/08/16 07:21:33;;;;;;;9.68;5.35;;;;;;;18.77;95.78;95230.75;5085791;28;20040;-80
2021/08/16 07:23:59;;;;;;;10.80;6.07;;;;;;;18.75;94.60;95239.06;5090880;28;20039;-80
2021/08/16 07:26:25;;;;;;;10.05;6.00;;;;;;;18.87;94.57;95236.47;5088384;28;20505;-77
2021/08/16 07:28:50;;;;;;;9.80;6.07;;;;;;;18.93;96.38;95244.25;5083971;28;20066;-80
2021/08/16 07:31:16;;;;;;;12.02;6.47;;;;;;;18.97;95.69;95251.25;5085213;28;20044;-80
2021/08/16 07:33:41;;;;;;;10.00;5.38;;;;;;;19.20;94.32;95248.22;5087715;28;20103;-80
2021/08/16 07:36:07;;;;;;;11.77;6.22;;;;;;;19.37;94.65;95249.91;5088929;28;20040;-80
2021/08/16 07:38:32;;;;;;;10.95;6.38;;;;;;;19.48;94.03;95252.91;5080792;28;20048;-79
2021/08/16 07:40:58;;;;;;;12.75;6.00;;;;;;;19.60;95.23;95244.16;5087639;28;20048;-79
2021/08/16 07:43:23;;;;;;;8.38;5.32;;;;;;;19.86;90.48;95244.59;5080710;28;20055;-80
2021/08/16 07:45:49;;;;;;;8.93;5.53;;;;;;;20.05;90.46;95259.28;5089108;28;20075;-78
2021/08/16 07:48:16;;;;;;;9.95;5.30;;;;;;;20.25;88.76;95253.00;5084961;28;20044;-78
2021/08/16 07:50:41;;;;;;;11.02;5.72;;;;;;;20.26;92.19;95253.78;5082942;28;20040;-79
2021/08/16 07:53:07;;;;;;;12.35;5.80;;;;;;;20.39;91.29;95249.19;5088024;28;20161;-78
2021/08/16 07:55:34;;;;;;;10.25;5.70;;;;;;;20.42;90.50;95251.19;5076932;28;20055;-79
2021/08/16 07:57:59;;;;;;;8.70;5.78;;;;;;;20.38;88.42;95255.66;5079983;28;20040;-78
2021/08/16 08:00:24;;;;;;;9.10;4.85;;;;;;;20.62;85.74;95259.38;5091182;28;20050;-80
2021/08/16 08:02:51;;;;;;;11.00;4.72;;;;;;;20.62;85.68;95260.13;5079948;28;20115;-79
2021/08/16 08:05:19;;;;;;;10.20;5.28;;;;;;;20.58;86.47;95262.69;5086173;28;20150;-78
2021/08/16 08:07:45;;;;;;;10.65;4.82;;;;;;;20.65;88.08;95270.16;5091841;28;20040;-78
2021/08/16 08:10:12;;;;;;;7.82;5.15;;;;;;;20.68;86.93;95268.72;5089206;28;20051;-77
2021/08/16 08:12:38;;;;;;;9.57;5.50;;;;;;;20.63;85.64;95271.59;5073386;28;20048;-78
2021/08/16 08:15:05;;;;;;;7.50;5.00;;;;;;;20.65;84.60;95280.06;5086562;28;20055;-76
2021/08/16 08:17:31;;;;;;;9.05;5.53;;;;;;;20.64;84.77;95278.50;5091165;28;20059;-79
2021/08/16 08:19:57;;;;;;;11.48;5.47;;;;;;;20.69;85.64;95281.00;5087004;28;20036;-77
2021/08/16 08:22:24;;;;;;;8.27;5.20;;;;;;;20.72;83.67;95281.06;5077687;28;20666;-78
2021/08/16 08:24:52;;;;;;;11.55;4.80;;;;;;;20.72;84.08;95275.72;5083588;28;20052;-80
2021/08/16 08:27:17;;;;;;;10.25;5.63;;;;;;;20.57;87.00;95263.84;5078633;28;20084;-78
2021/08/16 08:29:43;;;;;;;10.82;5.82;;;;;;;20.55;86.40;95271.41;5084889;28;20071;-78
2021/08/16 08:32:09;;;;;;;10.55;5.85;;;;;;;20.60;84.90;95268.50;5077755;28;20063;-78
2021/08/16 08:34:35;;;;;;;10.13;5.43;;;;;;;20.68;84.06;95280.19;5088508;28;20401;-79
2021/08/16 08:37:01;;;;;;;9.50;6.13;;;;;;;20.67;85.16;95272.50;5089253;28;20052;-77
2021/08/16 08:39:26;;;;;;;9.57;5.50;;;;;;;20.81;82.97;95277.47;5080240;28;20041;-77
2021/08/16 08:41:57;;;;;;;11.93;5.80;;;;;;;20.70;84.28;95279.84;5080126;28;20051;-78
2021/08/16 08:44:24;;;;;;;11.80;5.75;;;;;;;20.66;84.54;95281.63;5084390;28;20509;-77
2021/08/16 08:46:50;;;;;;;9.80;5.47;;;;;;;20.62;83.63;95286.09;5090504;27;20055;-77
2021/08/16 08:49:15;;;;;;;10.32;5.47;;;;;;;20.51;85.28;95291.91;5081868;27;20523;-80
2021/08/16 08:51:42;;;;;;;12.90;5.95;;;;;;;20.48;85.53;95284.56;5082835;28;20179;-77
2021/08/16 08:54:08;;;;;;;10.30;5.45;;;;;;;20.37;85.15;95286.94;5083440;28;20040;-80
2021/08/16 08:56:34;;;;;;;10.10;5.88;;;;;;;20.35;86.69;95285.72;5090178;28;20044;-78
2021/08/16 08:59:00;;;;;;;9.52;5.60;;;;;;;20.23;87.09;95281.94;5087862;28;20060;-79
2021/08/16 09:01:27;;;;;;;10.52;5.90;;;;;;;20.27;85.92;95282.06;5093114;28;20523;-80
2021/08/16 09:03:55;;;;;;;12.73;6.22;;;;;;;20.21;86.85;95294.88;5083970;28;20048;-78
2021/08/16 09:06:28;;;;;;;8.80;5.80;;;;;;;20.16;86.60;95292.44;5080242;28;20062;-80
2021/08/16 09:08:55;;;;;;;11.27;5.53;;;;;;;20.08;88.55;95296.00;5085127;28;20117;-79
2021/08/16 09:11:20;;;;;;;12.15;6.25;;;;;;;20.03;90.83;95299.66;5091140;28;20043;-77
2021/08/16 09:14:00;;;;;;;11.98;6.30;;;;;;;19.93;91.74;95294.78;5088301;28;20497;-79
2021/08/16 09:16:37;;;;;;;15.05;7.10;;;;;;;19.70;92.86;95278.41;5088439;28;20036;-77
2021/08/16 09:19:18;;;;;;;11.70;6.53;;;;;;;19.61;93.35;95283.06;5078766;28;20056;-78
2021/08/16 09:21:53;;;;;;;13.20;6.57;;;;;;;19.55;94.50;95279.81;5083558;28;20044;-77
2021/08/16 09:24:23;;;;;;;11.02;6.43;;;;;;;19.47;93.96;95267.38;5086583;28;20596;-78
2021/08/16 09:26:49;;;;;;;10.45;6.05;;;;;;;19.54;93.03;95268.38;5078350;28;20432;-74
2021/08/16 09:29:17;;;;;;;12.90;6.60;;;;;;;19.53;92.29;95276.72;5083764;28;20060;-77
2021/08/16 09:32:03;;;;;;;9.10;5.85;;;;;;;19.41;92.79;95269.47;5082281;28;20066;-76
2021/08/16 09:34:32;;;;;;;11.07;6.40;;;;;;;19.44;94.82;95265.34;5087320;28;20520;-77
2021/08/16 09:37:02;;;;;;;8.48;5.57;;;;;;;19.52;92.77;95270.63;5077017;28;20062;-76
2021/08/16 09:39:32;;;;;;;10.25;6.05;;;;;;;19.49;93.94;95265.91;5082753;28;20044;-76
2021/08/16 09:42:00;;;;;;;9.60;6.63;;;;;;;19.56;94.29;95266.13;5088266;28;20387;-76
2021/08/16 09:44:26;;;;;;;11.45;6.65;;;;;;;19.55;95.04;95259.28;5090322;28;20048;-77
2021/08/16 09:47:04;;;;;;;8.90;5.80;;;;;;;19.61;94.63;95261.69;5083738;28;20036;-76
2021/08/16 09:49:31;;;;;;;10.45;6.43;;;;;;;19.74;93.27;95261.38;5079921;28;20040;-76
2021/08/16 09:52:06;;;;;;;9.40;6.30;;;;;;;19.84;91.56;95265.53;5085909;28;20039;-77
2021/08/16 09:54:33;;;;;;;10.98;6.65;;;;;;;20.01;92.89;95269.06;5082821;28;20048;-76
2021/08/16 09:57:01;;;;;;;9.80;6.80;;;;;;;20.10;92.99;95267.06;5082010;28;20502;-76
2021/08/16 09:59:27;;;;;;;9.65;6.57;;;;;;;20.18;91.26;95268.81;5070437;28;20048;-77
2021/08/16 10:01:53;;;;;;;11.13;7.05;;;;;;;20.21;90.84;95265.50;5075159;28;20051;-76
2021/08/16 10:04:18;;;;;;;11.20;7.25;;;;;;;20.30;91.83;95276.03;5082490;28;20036;-77
2021/08/16 10:06:45;;;;;;;8.90;6.50;;;;;;;20.37;92.03;95280.81;5077326;28;20047;-76
2021/08/16 10:09:12;;;;;;;10.80;6.80;;;;;;;20.34;91.17;95270.78;5075607;28;20493;-76
2021/08/16 10:11:40;;;;;;;11.30;6.82;;;;;;;20.30;90.29;95280.59;5076793;28;20060;-77
2021/08/16 10:14:05;;;;;;;13.00;7.00;;;;;;;20.24;91.77;95272.81;5076417;28;20051;-77
2021/08/16 10:16:34;;;;;;;11.55;6.88;;;;;;;20.22;92.80;95280.38;5074609;28;20115;-78
2021/08/16 10:19:19;;;;;;;12.73;6.78;;;;;;;20.23;88.89;95271.25;5081390;28;20052;-79
2021/08/16 10:21:47;;;;;;;11.43;6.45;;;;;;;20.27;90.55;95281.28;5079494;28;20119;-78
2021/08/16 10:24:18;;;;;;;10.13;6.53;;;;;;;20.18;91.35;95290.19;5085397;28;20043;-79
2021/08/16 10:26:54;;;;;;;10.57;6.45;;;;;;;20.13;90.59;95282.41;5080301;28;20485;-79
2021/08/16 10:29:20;;;;;;;10.35;6.43;;;;;;;20.19;92.23;95275.72;5083459;28;20505;-78
2021/08/16 10:31:50;;;;;;;9.65;6.25;;;;;;;20.20;91.60;95277.28;5078194;28;20052;-78
2021/08/16 10:34:36;;;;;;;9.70;6.63;;;;;;;20.17;88.96;95282.50;5078803;28;20044;-79
2021/08/16 10:37:10;;;;;;;11.77;6.65;;;;;;;20.09;89.81;95276.19;5074041;28;20055;-76
2021/08/16 10:39:40;;;;;;;14.80;7.18;;;;;;;19.93;90.45;95283.34;5083960;28;20040;-77
2021/08/16 10:42:10;;;;;;;10.52;6.55;;;;;;;19.89;86.73;95278.63;5083696;28;20028;-78
2021/08/16 10:44:49;;;;;;;15.30;7.65;;;;;;;20.04;87.62;95268.38;5087420;28;20118;-77
2021/08/16 10:47:29;;;;;;;9.65;6.80;;;;;;;19.87;89.90;95275.53;5082427;28;20036;-77
2021/08/16 10:50:20;;;;;;;13.40;6.97;;;;;;;19.66;87.57;95280.19;5083121;28;20494;-77
2021/08/16 10:52:48;;;;;;;10.68;6.60;;;;;;;19.32;86.67;95271.47;5087954;28;20032;-78
2021/08/16 10:55:23;;;;;;;10.90;7.00;;;;;;;19.37;88.71;95268.59;5085074;28;20045;-77
2021/08/16 10:57:49;;;;;;;13.68;8.10;;;;;;;19.19;90.65;95266.13;5081722;28;20044;-77
2021/08/16 11:00:15;;;;;;;16.02;8.65;;;;;;;19.16;93.13;95258.75;5088195;28;20121;-78
2021/08/16 11:02:42;;;;;;;15.95;8.75;;;;;;;19.02;91.32;95252.94;5086654;28;20036;-78
2021/08/16 11:05:12;;;;;;;15.02;9.35;;;;;;;19.07;91.80;95252.75;5085339;28;20051;-79
2021/08/16 11:07:39;;;;;;;16.05;9.90;;;;;;;19.13;92.83;95258.66;5088318;28;20139;-80
2021/08/16 11:10:08;;;;;;;16.40;9.27;;;;;;;19.13;93.30;95259.41;5079662;28;20570;-76
2021/08/16 11:12:45;;;;;;;16.75;9.52;;;;;;;19.15;92.98;95262.53;5087864;28;20546;-77
2021/08/16 11:15:17;;;;;;;15.70;9.68;;;;;;;19.07;92.16;95266.06;5088876;28;20115;-77
2021/08/16 11:17:43;;;;;;;17.98;10.57;;;;;;;18.84;94.63;95263.75;5083476;28;20036;-76
2021/08/16 11:20:15;;;;;;;16.35;10.73;;;;;;;18.96;94.80;95262.25;5085416;28;20776;-78